sensor_id;sensor_type;location;lat;lon;timestamp;temperature;humidity
41168;DHT22;26906;45.658;9.272;2024-03-02T08:06:31;11.90;99.90
41168;DHT22;26906;45.658;9.272;2024-03-02T08:09:01;11.90;99.90
41168;DHT22;26906;45.658;9.272;2024-03-02T08:11:28;12.00;99.90
41168;DHT22;26906;45.658;9.272;2024-03-02T08:13:55;12.00;99.90
41168;DHT22;26906;45.658;9.272;2024-03-02T08:16:22;12.00;99.90
41168;DHT22;26906;45.658;9.272;2024-03-02T08:18:49;11.90;99.90
41168;DHT22;26906;45.658;9.272;2024-03-02T08:21:16;12.10;99.90
41168;DHT22;26906;45.658;9.272;2024-03-02T08:23:44;12.20;99.90
41168;DHT22;26906;45.658;9.272;2024-03-02T08:26:10;12.20;99.90
41168;DHT22;26906;45.658;9.272;2024-03-02T08:28:39;12.20;99.90
41168;DHT22;26906;45.658;9.272;2024-03-02T08:31:07;12.30;99.90
41168;DHT22;26906;45.658;9.272;2024-03-02T08:33:33;12.30;99.90
41168;DHT22;26906;45.658;9.272;2024-03-02T08:35:59;12.30;99.90
41168;DHT22;26906;45.658;9.272;2024-03-02T08:38:26;12.40;99.90
41168;DHT22;26906;45.658;9.272;2024-03-02T08:40:52;12.40;99.90
41168;DHT22;26906;45.658;9.272;2024-03-02T08:43:20;12.40;99.90
41168;DHT22;26906;45.658;9.272;2024-03-02T08:45:48;12.40;99.90
41168;DHT22;26906;45.658;9.272;2024-03-02T08:48:14;12.30;99.90
41168;DHT22;26906;45.658;9.272;2024-03-02T08:50:39;12.30;99.90
41168;DHT22;26906;45.658;9.272;2024-03-02T08:53:05;12.30;99.90
41168;DHT22;26906;45.658;9.272;2024-03-02T08:55:31;12.30;99.90
41168;DHT22;26906;45.658;9.272;2024-03-02T08:57:56;12.30;99.90
41168;DHT22;26906;45.658;9.272;2024-03-02T09:00:25;12.20;99.90
41168;DHT22;26906;45.658;9.272;2024-03-02T09:02:55;12.10;99.90
41168;DHT22;26906;45.658;9.272;2024-03-02T09:05:21;12.20;99.90
41168;DHT22;26906;45.658;9.272;2024-03-02T09:07:47;12.20;99.90
41168;DHT22;26906;45.658;9.272;2024-03-02T09:10:12;12.20;99.90
41168;DHT22;26906;45.658;9.272;2024-03-02T09:12:38;12.30;99.90
41168;DHT22;26906;45.658;9.272;2024-03-02T09:15:06;12.30;99.90
41168;DHT22;26906;45.658;9.272;2024-03-02T09:17:32;12.20;99.90
41168;DHT22;26906;45.658;9.272;2024-03-02T09:19:58;12.30;99.90
41168;DHT22;26906;45.658;9.272;2024-03-02T09:22:24;12.30;99.90
41168;DHT22;26906;45.658;9.272;2024-03-02T09:24:50;12.30;99.90
41168;DHT22;26906;45.658;9.272;2024-03-02T09:27:17;12.40;99.90
41168;DHT22;26906;45.658;9.272;2024-03-02T09:29:44;12.50;99.90
41168;DHT22;26906;45.658;9.272;2024-03-02T09:32:12;12.60;99.90
41168;DHT22;26906;45.658;9.272;2024-03-02T09:34:39;12.50;99.90
41168;DHT22;26906;45.658;9.272;2024-03-02T09:37:05;12.50;99.90
41168;DHT22;26906;45.658;9.272;2024-03-02T09:39:31;12.50;99.90
41168;DHT22;26906;45.658;9.272;2024-03-02T09:41:57;12.40;99.90
41168;DHT22;26906;45.658;9.272;2024-03-02T09:44:24;12.40;99.90
41168;DHT22;26906;45.658;9.272;2024-03-02T09:46:53;12.40;99.90
41168;DHT22;26906;45.658;9.272;2024-03-02T09:49:19;12.40;99.90
41168;DHT22;26906;45.658;9.272;2024-03-02T09:51:49;12.50;99.90
41168;DHT22;26906;45.658;9.272;2024-03-02T09:54:16;12.40;99.90
41168;DHT22;26906;45.658;9.272;2024-03-02T09:56:43;12.60;99.90
41168;DHT22;26906;45.658;9.272;2024-03-02T09:59:09;12.70;99.90
41168;DHT22;26906;45.658;9.272;2024-03-02T10:01:35;12.90;99.90
41168;DHT22;26906;45.658;9.272;2024-03-02T10:04:01;13.00;99.90
41168;DHT22;26906;45.658;9.272;2024-03-02T10:06:30;13.20;99.90
41168;DHT22;26906;45.658;9.272;2024-03-02T10:08:58;13.30;99.90
41168;DHT22;26906;45.658;9.272;2024-03-02T10:11:28;13.40;99.90
41168;DHT22;26906;45.658;9.272;2024-03-02T10:16:40;13.80;99.90
41168;DHT22;26906;45.658;9.272;2024-03-02T10:19:20;13.80;99.90
41168;DHT22;26906;45.658;9.272;2024-03-02T10:21:51;13.90;99.90
41168;DHT22;26906;45.658;9.272;2024-03-02T10:24:18;13.80;99.90
41168;DHT22;26906;45.658;9.272;2024-03-02T10:26:44;13.60;99.90
41168;DHT22;26906;45.658;9.272;2024-03-02T10:29:11;13.50;99.90
41168;DHT22;26906;45.658;9.272;2024-03-02T10:31:39;13.50;99.90
41168;DHT22;26906;45.658;9.272;2024-03-02T10:34:10;13.40;99.90
41168;DHT22;26906;45.658;9.272;2024-03-02T10:36:37;13.20;99.90
41168;DHT22;26906;45.658;9.272;2024-03-02T10:39:06;12.90;99.90
41168;DHT22;26906;45.658;9.272;2024-03-02T10:41:37;13.00;99.90
41168;DHT22;26906;45.658;9.272;2024-03-02T10:44:05;12.90;99.90
41168;DHT22;26906;45.658;9.272;2024-03-02T10:46:33;12.90;99.90
41168;DHT22;26906;45.658;9.272;2024-03-02T10:49:01;12.90;99.90
41168;DHT22;26906;45.658;9.272;2024-03-02T10:51:29;12.80;99.90
41168;DHT22;26906;45.658;9.272;2024-03-02T10:54:01;12.90;99.90
41168;DHT22;26906;45.658;9.272;2024-03-02T10:56:47;13.00;99.90
41168;DHT22;26906;45.658;9.272;2024-03-02T11:01:43;12.90;99.90
41168;DHT22;26906;45.658;9.272;2024-03-02T11:04:13;13.00;99.90
41168;DHT22;26906;45.658;9.272;2024-03-02T11:06:49;13.00;99.90
41168;DHT22;26906;45.658;9.272;2024-03-02T11:09:20;13.00;99.90
41168;DHT22;26906;45.658;9.272;2024-03-02T11:12:03;13.00;99.90
41168;DHT22;26906;45.658;9.272;2024-03-02T11:14:31;12.90;99.90
41168;DHT22;26906;45.658;9.272;2024-03-02T11:16:59;12.90;99.90
41168;DHT22;26906;45.658;9.272;2024-03-02T11:19:25;13.00;99.90
41168;DHT22;26906;45.658;9.272;2024-03-02T11:21:53;12.90;99.90
41168;DHT22;26906;45.658;9.272;2024-03-02T11:26:53;12.70;99.90
41168;DHT22;26906;45.658;9.272;2024-03-02T11:32:05;12.80;99.90
41168;DHT22;26906;45.658;9.272;2024-03-02T11:34:34;12.70;99.90
41168;DHT22;26906;45.658;9.272;2024-03-02T11:37:03;12.80;99.90
41168;DHT22;26906;45.658;9.272;2024-03-02T11:39:29;12.80;99.90
41168;DHT22;26906;45.658;9.272;2024-03-02T11:41:56;12.80;99.90
41168;DHT22;26906;45.658;9.272;2024-03-02T11:44:27;12.80;99.90
41168;DHT22;26906;45.658;9.272;2024-03-02T11:47:00;12.90;99.90
41168;DHT22;26906;45.658;9.272;2024-03-02T11:49:49;12.90;99.90
41168;DHT22;26906;45.658;9.272;2024-03-02T11:52:17;12.90;99.90
41168;DHT22;26906;45.658;9.272;2024-03-02T11:54:47;12.80;99.90
41168;DHT22;26906;45.658;9.272;2024-03-02T11:57:23;12.70;99.90
41168;DHT22;26906;45.658;9.272;2024-03-02T11:59:49;12.70;99.90
41168;DHT22;26906;45.658;9.272;2024-03-02T12:02:21;12.70;99.90
41168;DHT22;26906;45.658;9.272;2024-03-02T12:04:49;12.60;99.90
41168;DHT22;26906;45.658;9.272;2024-03-02T12:07:24;12.60;99.90
41168;DHT22;26906;45.658;9.272;2024-03-02T12:09:59;12.70;99.90
41168;DHT22;26906;45.658;9.272;2024-03-02T12:12:26;12.70;99.90
41168;DHT22;26906;45.658;9.272;2024-03-02T12:14:53;12.80;99.90
41168;DHT22;26906;45.658;9.272;2024-03-02T12:17:23;12.80;99.90
41168;DHT22;26906;45.658;9.272;2024-03-02T12:19:48;12.80;99.90
41168;DHT22;26906;45.658;9.272;2024-03-02T12:22:14;12.80;99.90
41168;DHT22;26906;45.658;9.272;2024-03-02T12:24:41;12.80;99.90
41168;DHT22;26906;45.658;9.272;2024-03-02T12:27:07;12.90;99.90
41168;DHT22;26906;45.658;9.272;2024-03-02T12:29:34;12.80;99.90
41168;DHT22;26906;45.658;9.272;2024-03-02T12:32:00;12.80;99.90
41168;DHT22;26906;45.658;9.272;2024-03-02T12:34:28;12.80;99.90
41168;DHT22;26906;45.658;9.272;2024-03-02T12:36:54;12.70;99.90
41168;DHT22;26906;45.658;9.272;2024-03-02T12:39:20;12.80;99.90
41168;DHT22;26906;45.658;9.272;2024-03-02T12:41:47;12.80;99.90
41168;DHT22;26906;45.658;9.272;2024-03-02T12:44:14;12.80;99.90
41168;DHT22;26906;45.658;9.272;2024-03-02T12:46:40;12.90;99.90
41168;DHT22;26906;45.658;9.272;2024-03-02T12:49:11;12.90;99.90
41168;DHT22;26906;45.658;9.272;2024-03-02T12:51:40;12.80;99.90
41168;DHT22;26906;45.658;9.272;2024-03-02T12:54:10;12.70;99.90
41168;DHT22;26906;45.658;9.272;2024-03-02T12:56:36;12.70;99.90
41168;DHT22;26906;45.658;9.272;2024-03-02T12:59:05;12.80;99.90
41168;DHT22;26906;45.658;9.272;2024-03-02T13:01:33;12.80;99.90
41168;DHT22;26906;45.658;9.272;2024-03-02T13:04:00;12.90;99.90
41168;DHT22;26906;45.658;9.272;2024-03-02T13:06:26;13.00;99.90
41168;DHT22;26906;45.658;9.272;2024-03-02T13:08:53;13.00;99.90
41168;DHT22;26906;45.658;9.272;2024-03-02T13:11:22;13.00;99.90
41168;DHT22;26906;45.658;9.272;2024-03-02T13:13:49;12.90;99.90
41168;DHT22;26906;45.658;9.272;2024-03-02T13:16:16;12.70;99.90
41168;DHT22;26906;45.658;9.272;2024-03-02T13:18:45;12.70;99.90
41168;DHT22;26906;45.658;9.272;2024-03-02T13:21:11;12.80;99.90
41168;DHT22;26906;45.658;9.272;2024-03-02T13:23:36;12.80;99.90
41168;DHT22;26906;45.658;9.272;2024-03-02T13:26:02;12.90;99.90
41168;DHT22;26906;45.658;9.272;2024-03-02T13:28:28;12.90;99.90
41168;DHT22;26906;45.658;9.272;2024-03-02T13:30:54;12.80;99.90
41168;DHT22;26906;45.658;9.272;2024-03-02T13:33:19;12.60;99.90
41168;DHT22;26906;45.658;9.272;2024-03-02T13:35:51;12.50;99.90
41168;DHT22;26906;45.658;9.272;2024-03-02T13:38:19;12.50;99.90
41168;DHT22;26906;45.658;9.272;2024-03-02T13:40:45;12.60;99.90
41168;DHT22;26906;45.658;9.272;2024-03-02T13:43:14;12.60;99.90
41168;DHT22;26906;45.658;9.272;2024-03-02T13:45:40;12.60;99.90
41168;DHT22;26906;45.658;9.272;2024-03-02T13:48:06;12.60;99.90
41168;DHT22;26906;45.658;9.272;2024-03-02T13:50:32;12.60;99.90
41168;DHT22;26906;45.658;9.272;2024-03-02T13:52:58;12.60;99.90
41168;DHT22;26906;45.658;9.272;2024-03-02T13:55:25;12.70;99.90
41168;DHT22;26906;45.658;9.272;2024-03-02T13:57:51;12.60;99.90
41168;DHT22;26906;45.658;9.272;2024-03-02T14:00:19;12.80;99.90
41168;DHT22;26906;45.658;9.272;2024-03-02T14:02:46;12.90;99.90
41168;DHT22;26906;45.658;9.272;2024-03-02T14:05:12;13.00;99.90
41168;DHT22;26906;45.658;9.272;2024-03-02T14:07:41;13.00;99.90
41168;DHT22;26906;45.658;9.272;2024-03-02T14:10:07;13.00;99.90
41168;DHT22;26906;45.658;9.272;2024-03-02T14:12:33;12.90;99.90
41168;DHT22;26906;45.658;9.272;2024-03-02T14:14:59;12.90;99.90
41168;DHT22;26906;45.658;9.272;2024-03-02T14:17:27;12.90;99.90
41168;DHT22;26906;45.658;9.272;2024-03-02T14:19:53;12.80;99.90
41168;DHT22;26906;45.658;9.272;2024-03-02T14:22:19;12.70;99.90
41168;DHT22;26906;45.658;9.272;2024-03-02T14:24:46;12.60;99.90
41168;DHT22;26906;45.658;9.272;2024-03-02T14:27:13;12.70;99.90
41168;DHT22;26906;45.658;9.272;2024-03-02T14:29:44;12.70;99.90
41168;DHT22;26906;45.658;9.272;2024-03-02T14:32:11;12.80;99.90
41168;DHT22;26906;45.658;9.272;2024-03-02T14:34:36;12.90;99.90
41168;DHT22;26906;45.658;9.272;2024-03-02T14:37:04;13.00;99.90
41168;DHT22;26906;45.658;9.272;2024-03-02T14:39:30;13.00;99.90
41168;DHT22;26906;45.658;9.272;2024-03-02T14:42:00;13.00;99.90
41168;DHT22;26906;45.658;9.272;2024-03-02T14:44:26;13.10;99.90
41168;DHT22;26906;45.658;9.272;2024-03-02T14:46:52;13.00;99.90
41168;DHT22;26906;45.658;9.272;2024-03-02T14:49:21;13.20;99.90
41168;DHT22;26906;45.658;9.272;2024-03-02T14:51:48;13.30;99.90
41168;DHT22;26906;45.658;9.272;2024-03-02T14:54:15;13.40;99.90
41168;DHT22;26906;45.658;9.272;2024-03-02T14:56:40;13.40;99.90
41168;DHT22;26906;45.658;9.272;2024-03-02T14:59:07;13.40;99.90
41168;DHT22;26906;45.658;9.272;2024-03-02T15:01:51;13.40;99.90
41168;DHT22;26906;45.658;9.272;2024-03-02T15:04:17;13.40;99.90
41168;DHT22;26906;45.658;9.272;2024-03-02T15:06:45;13.30;99.90
41168;DHT22;26906;45.658;9.272;2024-03-02T15:09:11;13.30;99.90
41168;DHT22;26906;45.658;9.272;2024-03-02T15:11:38;13.20;99.90
41168;DHT22;26906;45.658;9.272;2024-03-02T15:14:04;13.30;99.90
41168;DHT22;26906;45.658;9.272;2024-03-02T15:16:30;13.20;99.90
41168;DHT22;26906;45.658;9.272;2024-03-02T15:18:56;13.20;99.90
41168;DHT22;26906;45.658;9.272;2024-03-02T15:21:23;13.30;99.90
41168;DHT22;26906;45.658;9.272;2024-03-02T15:23:49;13.30;99.90
41168;DHT22;26906;45.658;9.272;2024-03-02T15:26:16;13.30;99.90
41168;DHT22;26906;45.658;9.272;2024-03-02T15:28:43;13.20;99.90
41168;DHT22;26906;45.658;9.272;2024-03-02T15:31:08;13.10;99.90
41168;DHT22;26906;45.658;9.272;2024-03-02T15:33:34;13.10;99.90
41168;DHT22;26906;45.658;9.272;2024-03-02T15:36:00;13.00;99.90
41168;DHT22;26906;45.658;9.272;2024-03-02T15:38:26;12.90;99.90
41168;DHT22;26906;45.658;9.272;2024-03-02T15:40:53;13.00;99.90
41168;DHT22;26906;45.658;9.272;2024-03-02T15:43:20;13.00;99.90
41168;DHT22;26906;45.658;9.272;2024-03-02T15:45:47;12.90;99.90
41168;DHT22;26906;45.658;9.272;2024-03-02T15:48:12;12.80;99.90
41168;DHT22;26906;45.658;9.272;2024-03-02T15:50:39;12.80;99.90
41168;DHT22;26906;45.658;9.272;2024-03-02T15:53:04;12.80;99.90
41168;DHT22;26906;45.658;9.272;2024-03-02T15:55:32;12.80;99.90
41168;DHT22;26906;45.658;9.272;2024-03-02T15:58:01;12.80;99.90
41168;DHT22;26906;45.658;9.272;2024-03-02T16:00:29;12.80;99.90
41168;DHT22;26906;45.658;9.272;2024-03-02T16:02:55;12.90;99.90
41168;DHT22;26906;45.658;9.272;2024-03-02T16:05:20;12.90;99.90
41168;DHT22;26906;45.658;9.272;2024-03-02T16:07:47;12.90;99.90
41168;DHT22;26906;45.658;9.272;2024-03-02T16:10:13;12.90;99.90
41168;DHT22;26906;45.658;9.272;2024-03-02T16:12:40;12.90;99.90
41168;DHT22;26906;45.658;9.272;2024-03-02T16:15:06;12.90;99.90
41168;DHT22;26906;45.658;9.272;2024-03-02T16:17:34;12.90;99.90
41168;DHT22;26906;45.658;9.272;2024-03-02T16:20:01;12.80;99.90
41168;DHT22;26906;45.658;9.272;2024-03-02T16:22:32;12.80;99.90
41168;DHT22;26906;45.658;9.272;2024-03-02T16:24:58;12.70;99.90
41168;DHT22;26906;45.658;9.272;2024-03-02T16:27:23;12.70;99.90
41168;DHT22;26906;45.658;9.272;2024-03-02T16:29:50;12.60;99.90
41168;DHT22;26906;45.658;9.272;2024-03-02T16:32:16;12.60;99.90
41168;DHT22;26906;45.658;9.272;2024-03-02T16:34:43;12.60;99.90
41168;DHT22;26906;45.658;9.272;2024-03-02T16:37:11;12.60;99.90
41168;DHT22;26906;45.658;9.272;2024-03-02T16:39:36;12.60;99.90
41168;DHT22;26906;45.658;9.272;2024-03-02T16:42:02;12.60;99.90
41168;DHT22;26906;45.658;9.272;2024-03-02T16:44:29;12.50;99.90
41168;DHT22;26906;45.658;9.272;2024-03-02T16:46:54;12.50;99.90
41168;DHT22;26906;45.658;9.272;2024-03-02T16:49:20;12.50;99.90
41168;DHT22;26906;45.658;9.272;2024-03-02T16:51:46;12.50;99.90
41168;DHT22;26906;45.658;9.272;2024-03-02T16:54:13;12.30;99.90
41168;DHT22;26906;45.658;9.272;2024-03-02T16:56:43;12.40;99.90
41168;DHT22;26906;45.658;9.272;2024-03-02T16:59:10;12.20;99.90
41168;DHT22;26906;45.658;9.272;2024-03-02T17:01:40;12.10;99.90
41168;DHT22;26906;45.658;9.272;2024-03-02T17:04:07;12.10;99.90
41168;DHT22;26906;45.658;9.272;2024-03-02T17:06:33;12.00;99.90
41168;DHT22;26906;45.658;9.272;2024-03-02T17:08:59;12.00;99.90
41168;DHT22;26906;45.658;9.272;2024-03-02T17:11:27;12.00;99.90
41168;DHT22;26906;45.658;9.272;2024-03-02T17:13:53;12.10;99.90
41168;DHT22;26906;45.658;9.272;2024-03-02T17:16:23;12.00;99.90
41168;DHT22;26906;45.658;9.272;2024-03-02T17:18:50;12.00;99.90
41168;DHT22;26906;45.658;9.272;2024-03-02T17:21:17;12.10;99.90
41168;DHT22;26906;45.658;9.272;2024-03-02T17:23:44;12.20;99.90
41168;DHT22;26906;45.658;9.272;2024-03-02T17:26:11;12.10;99.90
41168;DHT22;26906;45.658;9.272;2024-03-02T17:28:36;12.10;99.90
41168;DHT22;26906;45.658;9.272;2024-03-02T17:31:02;12.00;99.90
41168;DHT22;26906;45.658;9.272;2024-03-02T17:33:30;11.90;99.90
41168;DHT22;26906;45.658;9.272;2024-03-02T17:35:58;12.00;99.90
41168;DHT22;26906;45.658;9.272;2024-03-02T17:38:24;12.10;99.90
41168;DHT22;26906;45.658;9.272;2024-03-02T17:40:50;12.10;99.90
41168;DHT22;26906;45.658;9.272;2024-03-02T17:43:15;12.20;99.90
41168;DHT22;26906;45.658;9.272;2024-03-02T17:45:41;12.10;99.90
41168;DHT22;26906;45.658;9.272;2024-03-02T17:48:07;12.20;99.90
41168;DHT22;26906;45.658;9.272;2024-03-02T17:50:33;12.10;99.90
41168;DHT22;26906;45.658;9.272;2024-03-02T17:52:59;12.10;99.90
41168;DHT22;26906;45.658;9.272;2024-03-02T17:55:27;12.10;99.90
41168;DHT22;26906;45.658;9.272;2024-03-02T17:57:53;12.20;99.90
41168;DHT22;26906;45.658;9.272;2024-03-02T18:00:19;12.20;99.90
41168;DHT22;26906;45.658;9.272;2024-03-02T18:02:47;12.10;99.90
41168;DHT22;26906;45.658;9.272;2024-03-02T18:05:13;12.00;99.90
41168;DHT22;26906;45.658;9.272;2024-03-02T18:07:40;12.00;99.90
41168;DHT22;26906;45.658;9.272;2024-03-02T18:10:07;11.90;99.90
41168;DHT22;26906;45.658;9.272;2024-03-02T18:12:32;11.90;99.90
41168;DHT22;26906;45.658;9.272;2024-03-02T18:14:59;12.10;99.90
41168;DHT22;26906;45.658;9.272;2024-03-02T18:17:27;12.00;99.90
41168;DHT22;26906;45.658;9.272;2024-03-02T18:19:53;12.00;99.90
41168;DHT22;26906;45.658;9.272;2024-03-02T18:22:19;11.90;99.90
41168;DHT22;26906;45.658;9.272;2024-03-02T18:24:45;12.00;99.90
41168;DHT22;26906;45.658;9.272;2024-03-02T18:27:13;12.10;99.90
41168;DHT22;26906;45.658;9.272;2024-03-02T18:29:39;11.90;99.90
41168;DHT22;26906;45.658;9.272;2024-03-02T18:32:05;11.90;99.90
41168;DHT22;26906;45.658;9.272;2024-03-02T18:34:31;11.90;99.90
41168;DHT22;26906;45.658;9.272;2024-03-02T18:36:57;11.90;99.90
41168;DHT22;26906;45.658;9.272;2024-03-02T18:39:24;12.00;99.90
41168;DHT22;26906;45.658;9.272;2024-03-02T18:41:50;12.00;99.90
41168;DHT22;26906;45.658;9.272;2024-03-02T18:44:15;12.00;99.90
41168;DHT22;26906;45.658;9.272;2024-03-02T18:46:42;11.90;99.90
41168;DHT22;26906;45.658;9.272;2024-03-02T18:49:08;12.00;99.90
41168;DHT22;26906;45.658;9.272;2024-03-02T18:51:34;11.90;99.90
41168;DHT22;26906;45.658;9.272;2024-03-02T18:54:02;11.90;99.90
41168;DHT22;26906;45.658;9.272;2024-03-02T18:56:29;12.00;99.90
41168;DHT22;26906;45.658;9.272;2024-03-02T18:58:55;11.90;99.90
41168;DHT22;26906;45.658;9.272;2024-03-02T19:01:22;11.90;99.90
41168;DHT22;26906;45.658;9.272;2024-03-02T19:03:48;11.80;99.90
41168;DHT22;26906;45.658;9.272;2024-03-02T19:06:17;12.00;99.90
41168;DHT22;26906;45.658;9.272;2024-03-02T19:08:44;11.80;99.90
41168;DHT22;26906;45.658;9.272;2024-03-02T19:11:17;11.80;99.90
41168;DHT22;26906;45.658;9.272;2024-03-02T19:13:45;11.80;99.90
41168;DHT22;26906;45.658;9.272;2024-03-02T19:16:11;11.90;99.90
41168;DHT22;26906;45.658;9.272;2024-03-02T19:18:42;11.90;99.90
41168;DHT22;26906;45.658;9.272;2024-03-02T19:21:08;12.00;99.90
41168;DHT22;26906;45.658;9.272;2024-03-02T19:23:34;11.90;99.90
41168;DHT22;26906;45.658;9.272;2024-03-02T19:26:00;11.90;99.90
41168;DHT22;26906;45.658;9.272;2024-03-02T19:28:26;11.90;99.90
41168;DHT22;26906;45.658;9.272;2024-03-02T19:30:52;11.90;99.90
41168;DHT22;26906;45.658;9.272;2024-03-02T19:33:18;11.90;99.90
41168;DHT22;26906;45.658;9.272;2024-03-02T19:35:44;11.80;99.90
41168;DHT22;26906;45.658;9.272;2024-03-02T19:38:10;11.90;99.90
41168;DHT22;26906;45.658;9.272;2024-03-02T19:40:36;11.80;99.90
41168;DHT22;26906;45.658;9.272;2024-03-02T19:43:02;11.80;99.90
41168;DHT22;26906;45.658;9.272;2024-03-02T19:45:27;11.70;99.90
41168;DHT22;26906;45.658;9.272;2024-03-02T19:47:53;11.80;99.90
41168;DHT22;26906;45.658;9.272;2024-03-02T19:50:19;11.80;99.90
41168;DHT22;26906;45.658;9.272;2024-03-02T19:52:45;12.00;99.90
41168;DHT22;26906;45.658;9.272;2024-03-02T19:55:11;12.00;99.90
41168;DHT22;26906;45.658;9.272;2024-03-02T19:57:39;12.00;99.90
41168;DHT22;26906;45.658;9.272;2024-03-02T20:00:11;11.90;99.90
41168;DHT22;26906;45.658;9.272;2024-03-02T20:02:38;11.80;99.90
41168;DHT22;26906;45.658;9.272;2024-03-02T20:05:04;11.70;99.90
41168;DHT22;26906;45.658;9.272;2024-03-02T20:07:30;11.70;99.90
41168;DHT22;26906;45.658;9.272;2024-03-02T20:09:56;11.60;99.90
41168;DHT22;26906;45.658;9.272;2024-03-02T20:12:22;11.70;99.90
41168;DHT22;26906;45.658;9.272;2024-03-02T20:14:49;11.80;99.90
41168;DHT22;26906;45.658;9.272;2024-03-02T20:17:15;11.80;99.90
41168;DHT22;26906;45.658;9.272;2024-03-02T20:19:41;11.80;99.90
41168;DHT22;26906;45.658;9.272;2024-03-02T20:22:07;11.80;99.90
41168;DHT22;26906;45.658;9.272;2024-03-02T20:24:32;11.80;99.90
41168;DHT22;26906;45.658;9.272;2024-03-02T20:26:58;11.80;99.90
41168;DHT22;26906;45.658;9.272;2024-03-02T20:29:24;11.50;99.90
41168;DHT22;26906;45.658;9.272;2024-03-02T20:31:49;11.70;99.90
41168;DHT22;26906;45.658;9.272;2024-03-02T20:34:15;11.70;99.90
41168;DHT22;26906;45.658;9.272;2024-03-02T20:36:44;11.80;99.90
41168;DHT22;26906;45.658;9.272;2024-03-02T20:39:09;11.50;99.90
41168;DHT22;26906;45.658;9.272;2024-03-02T20:41:35;11.60;99.90
41168;DHT22;26906;45.658;9.272;2024-03-02T20:44:05;11.40;99.90
41168;DHT22;26906;45.658;9.272;2024-03-02T20:46:31;11.40;99.90
41168;DHT22;26906;45.658;9.272;2024-03-02T20:48:57;11.40;99.90
41168;DHT22;26906;45.658;9.272;2024-03-02T20:51:23;11.40;99.90
41168;DHT22;26906;45.658;9.272;2024-03-02T20:53:55;11.40;99.90
41168;DHT22;26906;45.658;9.272;2024-03-02T20:56:22;11.50;99.90
41168;DHT22;26906;45.658;9.272;2024-03-02T20:58:48;11.50;99.90
41168;DHT22;26906;45.658;9.272;2024-03-02T21:01:14;11.40;99.90
41168;DHT22;26906;45.658;9.272;2024-03-02T21:03:40;11.40;99.90
41168;DHT22;26906;45.658;9.272;2024-03-02T21:06:06;11.30;99.90
41168;DHT22;26906;45.658;9.272;2024-03-02T21:08:32;11.20;99.90
41168;DHT22;26906;45.658;9.272;2024-03-02T21:10:58;11.40;99.90
41168;DHT22;26906;45.658;9.272;2024-03-02T21:13:27;11.40;99.90
41168;DHT22;26906;45.658;9.272;2024-03-02T21:15:53;11.40;99.90
41168;DHT22;26906;45.658;9.272;2024-03-02T21:18:18;11.30;99.90
41168;DHT22;26906;45.658;9.272;2024-03-02T21:20:44;11.30;99.90
41168;DHT22;26906;45.658;9.272;2024-03-02T21:23:10;11.20;99.90
41168;DHT22;26906;45.658;9.272;2024-03-02T21:25:40;11.40;99.90
41168;DHT22;26906;45.658;9.272;2024-03-02T21:28:06;11.40;99.90
41168;DHT22;26906;45.658;9.272;2024-03-02T21:30:31;11.30;99.90
41168;DHT22;26906;45.658;9.272;2024-03-02T21:33:01;11.30;99.90
41168;DHT22;26906;45.658;9.272;2024-03-02T21:35:33;11.40;99.90
41168;DHT22;26906;45.658;9.272;2024-03-02T21:37:59;11.40;99.90
41168;DHT22;26906;45.658;9.272;2024-03-02T21:40:30;11.40;99.90
41168;DHT22;26906;45.658;9.272;2024-03-02T21:42:56;11.50;99.90
41168;DHT22;26906;45.658;9.272;2024-03-02T21:45:22;11.40;99.90
41168;DHT22;26906;45.658;9.272;2024-03-02T21:47:48;11.50;99.90
